createdAt,value
2022-10-18T00:00:22.635Z,100127.44
2022-10-18T00:02:49.597Z,100123.09
2022-10-18T00:05:16.666Z,100112.56
2022-10-18T00:07:43.891Z,100109.91
2022-10-18T00:10:11.054Z,100106.38
2022-10-18T00:12:38.950Z,100100.19
2022-10-18T00:15:07.137Z,100097.53
2022-10-18T00:17:34.859Z,100091.44
2022-10-18T00:20:01.897Z,100093.31
2022-10-18T00:22:30.325Z,100099.44
2022-10-18T00:24:57.896Z,100087.00
2022-10-18T00:27:24.842Z,100078.13
2022-10-18T00:29:54.833Z,100076.28
2022-10-18T00:32:22.113Z,100076.22
2022-10-18T00:34:49.065Z,100076.94
2022-10-18T00:37:16.351Z,100076.84
2022-10-18T00:39:43.712Z,100068.81
2022-10-18T00:42:17.016Z,100056.38
2022-10-18T00:44:43.974Z,100064.16
2022-10-18T00:47:13.582Z,100058.78
2022-10-18T00:49:53.640Z,100047.28
2022-10-18T00:52:25.923Z,100045.47
2022-10-18T00:54:53.441Z,100053.38
2022-10-18T00:57:20.822Z,100043.72
2022-10-18T00:59:47.866Z,100052.56
2022-10-18T01:02:18.360Z,100038.53
2022-10-18T01:04:46.222Z,100043.84
2022-10-18T01:07:15.903Z,100042.22
2022-10-18T01:10:01.624Z,100033.50
2022-10-18T01:12:45.345Z,100039.72
2022-10-18T01:15:12.556Z,100036.25
2022-10-18T01:17:48.460Z,100033.72
2022-10-18T01:20:34.313Z,100038.19
2022-10-18T01:23:11.380Z,100031.22
2022-10-18T01:25:52.097Z,100030.34
2022-10-18T01:28:37.902Z,100039.19
2022-10-18T01:31:15.310Z,100027.81
2022-10-18T01:33:42.258Z,100033.19
2022-10-18T01:36:12.195Z,100035.00
2022-10-18T01:38:40.611Z,100013.16
2022-10-18T01:41:13.209Z,100019.31
2022-10-18T01:43:43.961Z,100018.44
2022-10-18T01:46:11.968Z,100020.13
2022-10-18T01:48:39.553Z,100019.16
2022-10-18T01:51:06.649Z,100012.00
2022-10-18T01:53:34.685Z,100005.75
2022-10-18T01:56:01.721Z,99997.72
2022-10-18T01:58:32.629Z,100004.69
2022-10-18T02:03:43.838Z,100001.94
2022-10-18T02:06:19.112Z,99999.22
2022-10-18T02:08:48.859Z,99986.88
2022-10-18T02:11:17.590Z,99986.84
2022-10-18T02:13:57.345Z,99985.88
2022-10-18T02:16:35.041Z,99991.09
2022-10-18T02:19:05.596Z,99986.75
2022-10-18T02:21:32.653Z,99984.09
2022-10-18T02:24:01.350Z,99984.94
2022-10-18T02:26:28.373Z,99992.00
2022-10-18T02:28:55.465Z,99980.59
2022-10-18T02:31:27.500Z,99970.03
2022-10-18T02:34:00.588Z,99970.06
2022-10-18T02:36:36.582Z,99970.94
2022-10-18T02:39:14.776Z,99962.16
2022-10-18T02:41:41.920Z,99956.06
2022-10-18T02:44:09.067Z,99951.72
2022-10-18T02:46:36.069Z,99957.00
2022-10-18T02:49:03.034Z,99951.72
2022-10-18T02:51:30.008Z,99950.84
2022-10-18T02:53:56.957Z,99944.75
2022-10-18T02:56:24.190Z,99936.91
2022-10-18T02:58:51.085Z,99936.03
2022-10-18T03:01:18.166Z,99927.31
2022-10-18T03:03:45.367Z,99925.66
2022-10-18T03:06:12.295Z,99923.00
2022-10-18T03:08:39.318Z,99919.47
2022-10-18T03:11:06.693Z,99926.53
2022-10-18T03:13:34.496Z,99910.72
2022-10-18T03:16:01.648Z,99893.19
2022-10-18T03:18:29.102Z,99894.97
2022-10-18T03:20:56.069Z,99898.56
2022-10-18T03:23:23.034Z,99891.53
2022-10-18T03:25:50.125Z,99885.38
2022-10-18T03:28:17.234Z,99878.31
2022-10-18T03:30:44.144Z,99868.63
2022-10-18T03:33:11.076Z,99878.31
2022-10-18T03:35:38.016Z,99864.28
2022-10-18T03:38:05.016Z,99861.78
2022-10-18T03:43:03.818Z,99850.72
2022-10-18T03:45:31.543Z,99844.72
2022-10-18T03:47:58.802Z,99856.16
2022-10-18T03:50:25.755Z,99841.31
2022-10-18T03:52:54.303Z,99841.44
2022-10-18T03:55:21.405Z,99834.47
2022-10-18T03:57:48.458Z,99828.22
2022-10-18T04:00:15.600Z,99812.31
2022-10-18T04:02:42.581Z,99821.06
2022-10-18T04:05:09.764Z,99822.75
2022-10-18T04:10:08.916Z,99820.91
2022-10-18T04:12:36.026Z,99818.97
2022-10-18T04:15:03.052Z,99813.59
2022-10-18T04:17:30.518Z,99803.78
2022-10-18T04:19:57.964Z,99804.63
2022-10-18T04:22:24.903Z,99802.72
2022-10-18T04:24:53.486Z,99803.44
2022-10-18T04:27:20.483Z,99792.84
2022-10-18T04:29:47.640Z,99801.56
2022-10-18T04:32:14.613Z,99792.59
2022-10-18T04:34:44.601Z,99792.47
2022-10-18T04:37:11.628Z,99781.88
2022-10-18T04:39:38.633Z,99778.28
2022-10-18T04:42:05.586Z,99780.94
2022-10-18T04:44:32.501Z,99777.31
2022-10-18T04:46:59.425Z,99769.16
2022-10-18T04:49:26.402Z,99766.25
2022-10-18T04:51:53.372Z,99766.06
2022-10-18T04:54:21.864Z,99761.34
2022-10-18T04:56:50.864Z,99766.19
2022-10-18T04:59:17.847Z,99755.41
2022-10-18T05:01:45.472Z,99750.94
2022-10-18T05:04:12.737Z,99755.13
2022-10-18T05:06:39.949Z,99749.66
2022-10-18T05:09:06.891Z,99751.44
2022-10-18T05:11:34.017Z,99756.44
2022-10-18T05:14:00.978Z,99752.75
2022-10-18T05:16:28.670Z,99756.28
2022-10-18T05:18:55.828Z,99758.84
2022-10-18T05:21:22.773Z,99760.59
2022-10-18T05:23:49.774Z,99766.84
2022-10-18T05:26:16.736Z,99765.88
2022-10-18T05:28:43.851Z,99765.75
2022-10-18T05:31:11.925Z,99776.22
2022-10-18T05:33:39.058Z,99770.66
2022-10-18T05:36:06.442Z,99763.41
2022-10-18T05:38:33.466Z,99763.28
2022-10-18T05:41:03.979Z,99767.66
2022-10-18T05:43:30.980Z,99764.06
2022-10-18T05:45:57.951Z,99771.78
2022-10-18T05:48:25.020Z,99768.22
2022-10-18T05:50:51.980Z,99765.59
2022-10-18T05:53:35.760Z,99756.81
2022-10-18T05:56:04.240Z,99748.97
2022-10-18T05:58:31.204Z,99748.19
2022-10-18T06:00:59.307Z,99748.19
2022-10-18T06:03:27.789Z,99739.28
2022-10-18T06:05:59.219Z,99729.75
2022-10-18T06:08:26.137Z,99728.03
2022-10-18T06:10:53.135Z,99721.13
2022-10-18T06:13:20.388Z,99718.50
2022-10-18T06:15:47.531Z,99710.66
2022-10-18T06:18:14.473Z,99713.16
2022-10-18T06:20:41.425Z,99706.03
2022-10-18T06:23:08.589Z,99699.16
2022-10-18T06:25:35.559Z,99703.56
2022-10-18T06:28:05.232Z,99692.25
2022-10-18T06:30:34.490Z,99682.56
2022-10-18T06:33:01.502Z,99680.91
2022-10-18T06:35:28.541Z,99676.47
2022-10-18T06:37:55.486Z,99667.63
2022-10-18T06:40:22.484Z,99656.25
2022-10-18T06:43:00.007Z,99638.75
2022-10-18T06:45:33.592Z,99624.69
2022-10-18T06:48:00.532Z,99593.50
2022-10-18T06:50:27.551Z,99585.13
2022-10-18T06:52:54.597Z,99551.22
2022-10-18T06:55:21.644Z,99567.28
2022-10-18T06:57:48.676Z,99569.13
2022-10-18T07:00:15.845Z,99578.63
2022-10-18T07:02:42.815Z,99580.16
2022-10-18T07:05:11.590Z,99574.72
2022-10-18T07:07:38.691Z,99544.72
2022-10-18T07:10:06.128Z,99520.78
2022-10-18T07:12:33.567Z,99530.66
2022-10-18T07:15:01.378Z,99524.53
2022-10-18T07:17:31.066Z,99481.50
2022-10-18T07:19:58.309Z,99478.00
2022-10-18T07:22:30.036Z,99483.94
2022-10-18T07:24:57.282Z,99473.66
2022-10-18T07:27:24.276Z,99462.44
2022-10-18T07:29:51.290Z,99447.63
2022-10-18T07:32:18.215Z,99438.13
2022-10-18T07:34:45.392Z,99427.81
2022-10-18T07:37:12.419Z,99413.94
2022-10-18T07:39:39.329Z,99403.22
2022-10-18T07:42:06.359Z,99389.69
2022-10-18T07:44:33.262Z,99375.50
2022-10-18T07:47:00.308Z,99372.91
2022-10-18T07:49:27.280Z,99367.59
2022-10-18T07:51:54.238Z,99346.19
2022-10-18T07:54:22.527Z,99338.69
2022-10-18T07:56:49.545Z,99318.56
2022-10-18T07:59:16.467Z,99307.41
2022-10-18T08:01:43.737Z,99308.66
2022-10-18T08:04:16.065Z,99292.69
2022-10-18T08:06:43.678Z,99272.25
2022-10-18T08:09:10.713Z,99253.84
2022-10-18T08:11:37.651Z,99240.97
2022-10-18T08:14:04.609Z,99244.94
2022-10-18T08:16:34.164Z,99243.06
2022-10-18T08:19:01.080Z,99222.22
2022-10-18T08:21:28.040Z,99193.69
2022-10-18T08:23:55.267Z,99181.25
2022-10-18T08:26:22.873Z,99174.34
2022-10-18T08:29:03.535Z,99141.72
2022-10-18T08:31:36.817Z,99125.09
2022-10-18T08:34:03.794Z,99113.19
2022-10-18T08:36:31.000Z,99076.34
2022-10-18T08:38:58.029Z,99046.34
2022-10-18T08:41:37.186Z,99037.59
2022-10-18T08:44:23.063Z,99017.88
2022-10-18T08:46:55.696Z,99007.94
2022-10-18T08:49:26.910Z,99000.28
2022-10-18T08:51:53.871Z,98969.59
2022-10-18T08:54:27.590Z,98965.03
2022-10-18T08:57:01.538Z,98951.69
2022-10-18T08:59:39.655Z,98941.66
2022-10-18T09:02:19.223Z,98936.81
2022-10-18T09:05:12.453Z,98922.06
2022-10-18T09:07:42.154Z,98976.41
2022-10-18T09:10:38.497Z,98971.44
2022-10-18T09:13:15.882Z,98981.97
2022-10-18T09:15:45.682Z,98966.75
2022-10-18T09:18:28.729Z,98968.81
2022-10-18T09:20:57.233Z,98971.22
2022-10-18T09:23:38.239Z,98961.41
2022-10-18T09:26:16.721Z,98945.22
2022-10-18T09:28:53.937Z,98932.63
2022-10-18T09:31:23.695Z,98929.03
2022-10-18T09:34:20.048Z,98917.13
2022-10-18T09:36:50.625Z,98910.47
2022-10-18T09:39:31.559Z,98910.88
2022-10-18T09:42:19.086Z,98906.25
2022-10-18T09:44:49.128Z,98898.81
2022-10-18T09:47:17.040Z,98908.84
2022-10-18T09:50:05.205Z,98907.44
2022-10-18T09:52:37.567Z,98894.47
2022-10-18T09:55:09.765Z,98880.78
2022-10-18T09:57:43.832Z,98867.97
2022-10-18T10:00:18.802Z,98860.56
2022-10-18T10:02:45.881Z,98865.38
2022-10-18T10:05:14.294Z,98863.16
2022-10-18T10:07:42.872Z,98851.22
2022-10-18T10:10:26.781Z,98847.44
2022-10-18T10:13:12.326Z,98843.59
2022-10-18T10:15:42.405Z,98845.81
2022-10-18T10:18:19.445Z,98834.91
2022-10-18T10:20:54.243Z,98828.25
2022-10-18T10:23:21.335Z,98824.31
2022-10-18T10:25:56.073Z,98823.88
2022-10-18T10:28:48.773Z,98821.66
2022-10-18T10:31:24.888Z,98813.38
2022-10-18T10:34:30.834Z,98810.56
2022-10-18T10:36:58.073Z,98812.84
2022-10-18T10:39:25.210Z,98805.25
2022-10-18T10:41:53.619Z,98808.28
2022-10-18T10:44:25.435Z,98805.38
2022-10-18T10:46:53.506Z,98801.41
2022-10-18T10:52:28.082Z,98788.44
2022-10-18T10:57:46.336Z,98789.88
2022-10-18T11:00:37.302Z,98792.03
2022-10-18T11:03:27.875Z,98771.94
2022-10-18T11:05:58.021Z,98778.16
2022-10-18T11:08:41.796Z,98765.47
2022-10-18T11:11:28.680Z,98764.81
2022-10-18T11:14:20.992Z,98755.31
2022-10-18T11:16:49.461Z,98717.94
2022-10-18T11:19:32.813Z,98756.25
2022-10-18T11:22:02.145Z,98768.13
2022-10-18T11:24:29.449Z,98768.59
2022-10-18T11:27:02.226Z,98780.81
2022-10-18T11:29:32.246Z,98771.72
2022-10-18T11:32:12.215Z,98769.91
2022-10-18T11:34:46.887Z,98770.66
2022-10-18T11:37:39.532Z,98773.22
2022-10-18T11:40:06.670Z,98764.13
2022-10-18T11:42:52.478Z,98770.69
2022-10-18T11:45:25.897Z,98769.34
2022-10-18T11:47:55.698Z,98756.84
2022-10-18T11:50:26.352Z,98763.66
2022-10-18T11:53:05.136Z,98765.91
2022-10-18T11:55:38.189Z,98780.28
2022-10-18T11:58:05.392Z,98759.81
2022-10-18T12:00:41.129Z,98772.34
2022-10-18T12:03:14.183Z,98763.53
2022-10-18T12:05:43.749Z,98772.88
2022-10-18T12:08:16.263Z,98766.31
2022-10-18T12:11:04.140Z,98758.03
2022-10-18T12:13:43.914Z,98766.22
2022-10-18T12:16:11.322Z,98761.66
2022-10-18T12:18:58.587Z,98757.94
2022-10-18T12:21:27.468Z,98763.03
2022-10-18T12:23:57.604Z,98757.50
2022-10-18T12:26:25.802Z,98762.50
2022-10-18T12:29:01.890Z,98773.88
2022-10-18T12:31:30.139Z,98758.81
2022-10-18T12:34:00.554Z,98756.28
2022-10-18T12:36:53.728Z,98766.56
2022-10-18T12:39:44.009Z,98765.50
2022-10-18T12:42:19.773Z,98768.69
2022-10-18T12:44:47.104Z,98760.50
2022-10-18T12:47:25.990Z,98759.44
2022-10-18T12:50:00.772Z,98757.22
2022-10-18T12:52:30.603Z,98757.63
2022-10-18T12:55:02.226Z,98750.19
2022-10-18T12:58:09.058Z,98761.34
2022-10-18T13:00:35.946Z,98762.00
2022-10-18T13:03:21.240Z,98765.50
2022-10-18T13:05:55.653Z,98770.91
2022-10-18T13:08:25.845Z,98772.72
2022-10-18T13:11:13.049Z,98769.22
2022-10-18T13:14:07.230Z,98773.56
2022-10-18T13:16:40.869Z,98774.09
2022-10-18T13:19:18.053Z,98758.81
2022-10-18T13:21:47.914Z,98769.22
2022-10-18T13:24:29.334Z,98765.59
2022-10-18T13:27:18.041Z,98775.16
2022-10-18T13:29:56.335Z,98787.50
2022-10-18T13:32:35.830Z,98796.84
2022-10-18T13:35:03.735Z,98774.31
2022-10-18T13:37:30.973Z,98782.28
2022-10-18T13:40:24.314Z,98791.00
2022-10-18T13:42:51.368Z,98794.41
2022-10-18T13:45:33.615Z,98793.00
2022-10-18T13:48:35.617Z,98797.69
2022-10-18T13:51:20.559Z,98807.78
2022-10-18T13:54:01.727Z,98806.91
2022-10-18T13:56:40.630Z,98822.50
2022-10-18T13:59:30.379Z,98814.00
2022-10-18T14:02:09.120Z,98810.63
2022-10-18T14:04:45.318Z,98826.72
2022-10-18T14:07:12.704Z,98824.19
2022-10-18T14:09:52.521Z,98827.47
2022-10-18T14:12:31.340Z,98835.56
2022-10-18T14:15:03.680Z,98834.81
2022-10-18T14:17:30.820Z,98845.41
2022-10-18T14:20:17.517Z,98847.97
2022-10-18T14:22:53.477Z,98844.03
2022-10-18T14:25:20.680Z,98836.78
2022-10-18T14:27:50.928Z,98840.88
2022-10-18T14:30:20.914Z,98840.59
2022-10-18T14:32:49.313Z,98842.69
2022-10-18T14:35:33.621Z,98842.13
2022-10-18T14:38:02.229Z,98841.47
2022-10-18T14:40:31.330Z,98841.75
2022-10-18T14:43:01.963Z,98837.63
2022-10-18T14:45:28.925Z,98838.75
2022-10-18T14:47:55.939Z,98844.25
2022-10-18T14:50:25.440Z,98861.41
2022-10-18T14:52:54.169Z,98872.84
2022-10-18T14:55:25.621Z,98875.50
2022-10-18T14:57:52.820Z,98875.13
2022-10-18T15:00:41.853Z,98882.56
2022-10-18T15:03:13.416Z,98885.91
2022-10-18T15:05:51.855Z,98882.28
2022-10-18T15:08:19.342Z,98887.78
2022-10-18T15:10:46.574Z,98881.16
2022-10-18T15:13:14.158Z,98882.53
2022-10-18T15:15:41.604Z,98884.69
2022-10-18T15:18:08.573Z,98889.25
2022-10-18T15:20:39.750Z,98897.09
2022-10-18T15:23:27.030Z,98903.34
2022-10-18T15:26:00.622Z,98901.75
2022-10-18T15:28:33.038Z,98915.66
2022-10-18T15:31:02.019Z,98915.28
2022-10-18T15:33:34.527Z,98930.91
2022-10-18T15:36:11.744Z,98929.00
2022-10-18T15:38:39.062Z,98931.66
2022-10-18T15:41:24.703Z,98941.44
2022-10-18T15:43:51.633Z,98944.25
2022-10-18T15:46:32.406Z,98951.56
2022-10-18T15:49:19.577Z,98950.50
2022-10-18T15:51:50.081Z,98964.78
2022-10-18T15:54:20.154Z,98949.66
2022-10-18T15:56:47.160Z,98959.31
2022-10-18T15:59:28.048Z,98956.00
2022-10-18T16:01:55.423Z,98954.69
2022-10-18T16:04:29.605Z,98964.03
2022-10-18T16:06:57.390Z,98955.25
2022-10-18T16:09:25.516Z,98962.34
2022-10-18T16:11:56.619Z,98974.19
2022-10-18T16:14:24.885Z,98974.19
2022-10-18T16:16:54.026Z,98974.00
2022-10-18T16:19:24.166Z,98981.75
2022-10-18T16:21:54.482Z,98983.38
2022-10-18T16:24:22.033Z,98978.72
2022-10-18T16:26:49.839Z,98988.19
2022-10-18T16:29:24.431Z,98991.69
2022-10-18T16:31:53.618Z,98998.72
2022-10-18T16:34:20.558Z,98999.47
2022-10-18T16:36:47.510Z,98997.56
2022-10-18T16:39:16.162Z,99007.41
2022-10-18T16:41:43.605Z,99013.19
2022-10-18T16:44:10.796Z,99021.25
2022-10-18T16:46:37.907Z,99027.41
2022-10-18T16:49:05.551Z,99023.06
2022-10-18T16:51:32.489Z,99026.44
2022-10-18T16:53:59.425Z,99022.19
2022-10-18T16:56:28.270Z,99053.34
2022-10-18T16:58:55.264Z,99034.97
2022-10-18T17:01:23.237Z,99029.00
2022-10-18T17:03:54.011Z,99055.03
2022-10-18T17:06:25.350Z,99052.75
2022-10-18T17:08:53.392Z,99048.94
2022-10-18T17:11:21.054Z,99060.03
2022-10-18T17:13:48.008Z,99053.38
2022-10-18T17:16:24.429Z,99050.00
2022-10-18T17:18:51.561Z,99041.47
2022-10-18T17:21:18.942Z,99039.06
2022-10-18T17:23:45.906Z,99047.28
2022-10-18T17:26:28.421Z,99037.53
2022-10-18T17:28:58.643Z,99036.59
2022-10-18T17:31:25.693Z,99055.47
2022-10-18T17:33:54.860Z,99057.81
2022-10-18T17:36:22.517Z,99067.63
2022-10-18T17:38:55.883Z,99058.59
2022-10-18T17:41:23.125Z,99064.03
2022-10-18T17:43:50.124Z,99053.72
2022-10-18T17:46:18.141Z,99050.56
2022-10-18T17:48:45.641Z,99046.72
2022-10-18T17:51:14.242Z,99052.34
2022-10-18T17:53:41.346Z,99064.81
2022-10-18T17:56:08.454Z,99058.13
2022-10-18T17:58:35.775Z,99060.31
2022-10-18T18:01:19.160Z,99054.53
2022-10-18T18:03:47.949Z,99066.28
2022-10-18T18:06:19.163Z,99080.28
2022-10-18T18:08:47.035Z,99082.75
2022-10-18T18:11:14.357Z,99076.44
2022-10-18T18:13:41.478Z,99069.41
2022-10-18T18:16:11.933Z,99061.53
2022-10-18T18:18:38.947Z,99064.41
2022-10-18T18:21:06.008Z,99071.91
2022-10-18T18:23:33.058Z,99070.69
2022-10-18T18:26:00.514Z,99069.56
2022-10-18T18:28:27.504Z,99074.66
2022-10-18T18:30:54.588Z,99064.53
2022-10-18T18:33:21.643Z,99059.75
2022-10-18T18:35:58.317Z,99062.84
2022-10-18T18:38:25.937Z,99067.59
2022-10-18T18:41:06.554Z,99070.53
2022-10-18T18:43:33.698Z,99070.78
2022-10-18T18:46:00.665Z,99071.97
2022-10-18T18:48:28.578Z,99057.13
2022-10-18T18:50:55.552Z,99063.16
2022-10-18T18:53:25.843Z,99066.69
2022-10-18T18:55:54.316Z,99057.81
2022-10-18T18:58:21.379Z,99053.22
2022-10-18T19:00:48.530Z,99063.78
2022-10-18T19:03:15.581Z,99070.06
2022-10-18T19:05:42.605Z,99063.94
2022-10-18T19:08:09.656Z,99054.53
2022-10-18T19:10:36.743Z,99058.03
2022-10-18T19:13:03.859Z,99067.91
2022-10-18T19:15:31.001Z,99077.63
2022-10-18T19:17:58.080Z,99079.94
2022-10-18T19:20:25.112Z,99078.78
2022-10-18T19:22:52.159Z,99080.19
2022-10-18T19:25:21.163Z,99085.88
2022-10-18T19:27:50.516Z,99076.63
2022-10-18T19:30:19.939Z,99077.91
2022-10-18T19:32:46.890Z,99082.34
2022-10-18T19:35:13.787Z,99087.47
2022-10-18T19:37:40.965Z,99076.00
2022-10-18T19:40:08.153Z,99077.84
2022-10-18T19:42:37.592Z,99077.06
2022-10-18T19:45:05.093Z,99080.56
2022-10-18T19:47:32.076Z,99079.78
2022-10-18T19:49:59.351Z,99080.72
2022-10-18T19:52:28.507Z,99076.13
2022-10-18T19:54:55.588Z,99067.03
2022-10-18T19:57:22.592Z,99078.97
2022-10-18T19:59:55.162Z,99072.44
2022-10-18T20:02:26.510Z,99070.41
2022-10-18T20:04:56.414Z,99072.03
2022-10-18T20:07:23.305Z,99076.38
2022-10-18T20:09:50.364Z,99066.59
2022-10-18T20:12:17.336Z,99071.72
2022-10-18T20:14:47.409Z,99070.78
2022-10-18T20:17:15.904Z,99064.72
2022-10-18T20:19:45.439Z,99046.44
2022-10-18T20:22:12.554Z,99042.28
2022-10-18T20:24:39.530Z,99033.47
2022-10-18T20:27:06.493Z,99023.75
2022-10-18T20:29:33.716Z,99026.47
2022-10-18T20:32:00.765Z,99024.69
2022-10-18T20:34:28.721Z,99035.34
2022-10-18T20:37:00.160Z,99041.66
2022-10-18T20:39:27.435Z,99047.97
2022-10-18T20:41:57.048Z,99038.47
2022-10-18T20:44:29.316Z,99037.09
2022-10-18T20:46:56.240Z,99042.63
2022-10-18T20:49:23.191Z,99042.78
2022-10-18T20:51:53.006Z,99053.28
2022-10-18T20:54:20.055Z,99044.34
2022-10-18T20:56:49.540Z,99036.06
2022-10-18T20:59:17.302Z,99036.78
2022-10-18T21:01:44.962Z,99028.69
2022-10-18T21:04:11.999Z,99035.59
2022-10-18T21:06:43.711Z,99038.06
2022-10-18T21:09:10.722Z,99037.72
2022-10-18T21:11:39.166Z,99040.31
2022-10-18T21:14:12.302Z,99038.44
2022-10-18T21:16:42.990Z,99036.53
2022-10-18T21:19:10.538Z,99039.28
2022-10-18T21:21:37.714Z,99039.19
2022-10-18T21:24:07.702Z,99038.28
2022-10-18T21:26:35.930Z,99037.31
2022-10-18T21:29:04.077Z,99034.69
2022-10-18T21:31:32.758Z,99037.25
2022-10-18T21:34:06.678Z,99021.22
2022-10-18T21:36:36.887Z,99028.06
2022-10-18T21:39:05.886Z,99019.00
2022-10-18T21:41:33.579Z,99021.66
2022-10-18T21:44:05.562Z,99027.72
2022-10-18T21:46:35.600Z,99029.41
2022-10-18T21:49:02.709Z,99023.28
2022-10-18T21:51:29.738Z,99022.34
2022-10-18T21:53:57.608Z,99023.19
2022-10-18T21:56:31.055Z,99017.91
2022-10-18T21:59:01.118Z,99016.00
2022-10-18T22:01:35.710Z,99022.06
2022-10-18T22:04:04.692Z,99008.06
2022-10-18T22:09:07.267Z,98905.41
2022-10-18T22:11:42.509Z,99008.06
2022-10-18T22:14:10.693Z,99005.34
2022-10-18T22:16:40.397Z,99016.78
2022-10-18T22:19:07.652Z,99004.41
2022-10-18T22:21:37.933Z,99002.47
2022-10-18T22:24:06.438Z,98994.41
2022-10-18T22:26:37.804Z,98989.06
2022-10-18T22:29:12.539Z,98980.03
2022-10-18T22:31:41.018Z,98979.25
2022-10-18T22:34:13.444Z,98975.06
2022-10-18T22:36:40.446Z,98966.34
2022-10-18T22:39:11.155Z,98975.22
2022-10-18T22:41:40.779Z,98977.09
2022-10-18T22:44:12.327Z,98977.88
2022-10-18T22:46:39.868Z,98981.38
2022-10-18T22:49:06.965Z,98971.56
2022-10-18T22:54:02.115Z,98982.06
2022-10-18T22:56:29.568Z,98983.00
2022-10-18T22:58:56.730Z,98981.28
2022-10-18T23:01:24.318Z,98961.03
2022-10-18T23:03:58.442Z,98946.97
2022-10-18T23:06:27.087Z,98953.13
2022-10-18T23:08:59.359Z,98943.47
2022-10-18T23:11:35.054Z,98947.81
2022-10-18T23:14:03.885Z,98946.91
2022-10-18T23:19:38.947Z,98936.31
2022-10-18T23:22:23.765Z,98922.91
2022-10-18T23:28:23.101Z,98921.03
2022-10-18T23:30:55.873Z,98915.91
2022-10-18T23:33:25.708Z,98909.84
2022-10-18T23:35:59.508Z,98902.19
2022-10-18T23:38:26.518Z,98893.28
2022-10-18T23:40:59.562Z,98894.91
2022-10-18T23:43:26.604Z,98893.22
2022-10-18T23:46:14.000Z,98905.50
2022-10-18T23:48:41.280Z,98887.84
2022-10-18T23:51:08.697Z,98886.03
2022-10-18T23:53:38.526Z,98887.75
2022-10-18T23:56:19.683Z,98894.91
2022-10-18T23:58:48.276Z,98887.06
